Time;durP1;ratioP1;P1;durP2;ratioP2;P2;SDS_P1;SDS_P2;PMS_P1;PMS_P2;Temp;Humidity;BMP_temperature;BMP_pressure;BME280_temperature;BME280_humidity;BME280_pressure;Samples;Min_cycle;Max_cycle;Signal;HPM_P1;HPM_P2
2022/11/29 00:00:40;;;;;;;74.88;23.77;;;;;;;5.27;100.00;101350.22;5013303;28;20042;-68
2022/11/29 00:03:06;;;;;;;93.45;23.20;;;;;;;5.20;100.00;101348.16;5012805;28;20025;-68
2022/11/29 00:05:34;;;;;;;121.78;23.23;;;;;;;5.17;100.00;101345.41;5013862;28;20029;-69
2022/11/29 00:07:59;;;;;;;189.52;22.65;;;;;;;5.07;100.00;101347.59;5012887;28;20022;-69
2022/11/29 00:10:25;;;;;;;110.90;19.67;;;;;;;5.05;100.00;101350.94;5022003;28;20040;-68
2022/11/29 00:12:50;;;;;;;40.83;18.50;;;;;;;5.16;100.00;101354.06;5028189;28;20080;-68
2022/11/29 00:15:16;;;;;;;166.18;20.23;;;;;;;5.09;100.00;101357.19;5022421;28;20033;-69
2022/11/29 00:17:41;;;;;;;152.73;19.10;;;;;;;4.95;100.00;101360.06;5017468;28;20029;-69
2022/11/29 00:20:09;;;;;;;89.60;18.02;;;;;;;4.97;100.00;101357.53;5021949;28;20019;-69
2022/11/29 00:22:35;;;;;;;69.57;18.88;;;;;;;5.03;100.00;101360.41;5015123;28;20045;-70
2022/11/29 00:25:00;;;;;;;149.20;21.65;;;;;;;4.99;100.00;101361.06;5028586;28;20029;-68
2022/11/29 00:27:25;;;;;;;126.50;18.48;;;;;;;4.96;100.00;101361.81;5018757;28;20392;-69
2022/11/29 00:29:51;;;;;;;207.93;20.38;;;;;;;4.85;100.00;101366.53;5031544;28;20021;-69
2022/11/29 00:32:16;;;;;;;153.32;19.42;;;;;;;4.83;100.00;101364.66;5012754;28;20370;-69
2022/11/29 00:34:41;;;;;;;99.72;19.90;;;;;;;4.86;100.00;101360.50;5021998;28;20446;-67
2022/11/29 00:37:07;;;;;;;37.08;18.25;;;;;;;4.92;100.00;101369.44;5022274;28;20022;-69
2022/11/29 00:39:32;;;;;;;106.32;21.05;;;;;;;4.87;100.00;101366.59;5029539;28;20167;-68
2022/11/29 00:41:57;;;;;;;71.55;19.00;;;;;;;4.79;100.00;101368.84;5023738;28;20029;-67
2022/11/29 00:44:23;;;;;;;84.55;19.52;;;;;;;4.78;100.00;101361.84;5029280;28;20033;-68
2022/11/29 00:46:48;;;;;;;102.97;20.30;;;;;;;4.82;100.00;101363.78;5023785;28;20033;-68
2022/11/29 00:49:13;;;;;;;81.78;19.85;;;;;;;4.73;100.00;101356.41;5031914;28;20380;-70
2022/11/29 00:51:39;;;;;;;83.20;19.05;;;;;;;4.82;100.00;101362.91;5017369;28;20033;-67
2022/11/29 00:54:04;;;;;;;130.75;19.58;;;;;;;4.68;100.00;101365.72;5015733;28;20030;-68
2022/11/29 00:56:30;;;;;;;130.88;18.95;;;;;;;4.64;100.00;101369.00;5019936;28;20022;-68
2022/11/29 00:58:56;;;;;;;106.57;18.65;;;;;;;4.71;100.00;101371.06;5013086;28;20033;-68
2022/11/29 01:01:21;;;;;;;97.40;18.52;;;;;;;4.63;100.00;101371.53;5024701;28;20049;-69
2022/11/29 01:03:47;;;;;;;39.45;16.50;;;;;;;4.63;100.00;101368.94;5020207;28;20050;-69
2022/11/29 01:06:15;;;;;;;53.55;17.17;;;;;;;4.59;100.00;101370.47;5013172;28;20084;-68
2022/11/29 01:08:41;;;;;;;58.90;17.00;;;;;;;4.55;100.00;101368.53;5017837;28;20363;-67
2022/11/29 01:11:17;;;;;;;51.80;18.52;;;;;;;4.57;100.00;101366.88;5015892;28;20045;-69
2022/11/29 01:13:43;;;;;;;65.43;16.55;;;;;;;4.51;100.00;101374.41;5025608;28;20026;-68
2022/11/29 01:16:09;;;;;;;41.53;16.65;;;;;;;4.45;100.00;101376.69;5018631;28;20024;-68
2022/11/29 01:18:35;;;;;;;60.53;17.77;;;;;;;4.42;100.00;101372.22;5010971;28;20029;-68
2022/11/29 01:21:05;;;;;;;49.55;16.70;;;;;;;4.43;100.00;101373.16;5015556;28;20026;-69
2022/11/29 01:23:31;;;;;;;46.35;16.80;;;;;;;4.52;100.00;101374.50;5011851;28;20034;-69
2022/11/29 01:26:02;;;;;;;50.97;17.48;;;;;;;4.45;100.00;101376.69;5016384;28;20032;-68
2022/11/29 01:28:28;;;;;;;54.83;16.05;;;;;;;4.39;100.00;101373.00;5019922;28;20038;-68
2022/11/29 01:30:53;;;;;;;46.50;16.02;;;;;;;4.39;100.00;101373.00;5019852;28;20026;-69
2022/11/29 01:33:19;;;;;;;43.47;16.00;;;;;;;4.37;100.00;101379.84;5019352;28;20026;-69
2022/11/29 01:35:52;;;;;;;60.72;17.55;;;;;;;4.47;100.00;101385.50;5014920;28;20097;-68
2022/11/29 01:38:19;;;;;;;55.17;17.52;;;;;;;4.47;100.00;101380.28;5019875;28;20485;-68
2022/11/29 01:40:44;;;;;;;43.25;18.33;;;;;;;4.48;100.00;101393.41;5016447;28;20026;-69
2022/11/29 01:43:16;;;;;;;72.35;17.98;;;;;;;4.43;100.00;101391.38;5030724;28;20838;-69
2022/11/29 01:45:42;;;;;;;46.85;16.63;;;;;;;4.50;100.00;101399.59;5026884;28;20045;-67
2022/11/29 01:48:09;;;;;;;90.72;16.50;;;;;;;4.49;100.00;101391.69;5014821;28;20696;-68
2022/11/29 01:50:36;;;;;;;86.18;17.30;;;;;;;4.43;100.00;101387.06;5015328;28;20124;-68
2022/11/29 01:53:02;;;;;;;59.30;17.20;;;;;;;4.48;100.00;101389.91;5015586;28;20029;-68
2022/11/29 01:55:28;;;;;;;70.85;15.90;;;;;;;4.56;100.00;101397.28;5014540;28;20038;-67
2022/11/29 01:57:53;;;;;;;77.05;16.08;;;;;;;4.51;100.00;101398.75;5015546;28;20033;-69
2022/11/29 02:00:19;;;;;;;109.07;16.27;;;;;;;4.29;100.00;101399.38;5016102;28;20061;-68
2022/11/29 02:02:52;;;;;;;119.32;16.55;;;;;;;4.42;100.00;101405.22;5027736;28;20485;-68
2022/11/29 02:05:19;;;;;;;101.15;15.63;;;;;;;4.35;100.00;101404.00;5013983;28;20042;-69
2022/11/29 02:07:48;;;;;;;127.30;16.58;;;;;;;4.26;100.00;101407.06;5019936;28;20645;-69
2022/11/29 02:10:15;;;;;;;157.25;18.60;;;;;;;4.25;100.00;101399.16;5034961;28;20440;-70
2022/11/29 02:12:40;;;;;;;119.07;16.38;;;;;;;4.23;100.00;101399.06;5025223;28;20465;-68
2022/11/29 02:15:12;;;;;;;63.10;14.57;;;;;;;4.21;100.00;101408.53;5022314;28;20025;-68
2022/11/29 02:17:55;;;;;;;55.88;15.25;;;;;;;4.17;100.00;101410.06;5020451;28;20041;-69
2022/11/29 02:20:52;;;;;;;61.50;15.70;;;;;;;4.17;100.00;101404.84;5015799;28;20041;-68
2022/11/29 02:23:35;;;;;;;74.05;14.70;;;;;;;4.21;100.00;101413.75;5024552;28;20024;-68
2022/11/29 02:26:26;;;;;;;41.70;14.80;;;;;;;4.21;100.00;101408.53;5034633;28;20063;-69
2022/11/29 02:29:16;;;;;;;108.72;16.80;;;;;;;4.20;100.00;101411.94;5018213;28;20482;-68
2022/11/29 02:32:12;;;;;;;41.20;15.48;;;;;;;4.19;100.00;101420.56;5020602;28;20029;-67
2022/11/29 02:35:08;;;;;;;29.50;15.32;;;;;;;4.15;100.00;101416.00;5022520;28;20057;-68
2022/11/29 02:37:46;;;;;;;61.65;16.40;;;;;;;4.17;100.00;101427.41;5028316;28;20061;-67
2022/11/29 02:40:57;;;;;;;26.83;15.20;;;;;;;4.14;100.00;101424.66;5015610;28;20469;-68
2022/11/29 02:43:53;;;;;;;28.73;15.85;;;;;;;4.14;100.00;101433.38;5012918;28;20098;-67
2022/11/29 02:46:51;;;;;;;33.33;15.52;;;;;;;4.13;100.00;101435.88;5024003;28;20079;-68
2022/11/29 02:49:30;;;;;;;39.28;15.80;;;;;;;4.23;100.00;101448.56;5014150;28;20034;-67
2022/11/29 02:52:00;;;;;;;84.70;17.23;;;;;;;4.17;100.00;101448.25;5013069;28;20510;-68
2022/11/29 02:54:46;;;;;;;143.25;18.65;;;;;;;4.10;100.00;101447.03;5014386;28;20425;-69
2022/11/29 02:57:41;;;;;;;72.13;16.63;;;;;;;4.20;100.00;101443.19;5020826;28;20861;-68
2022/11/29 03:00:12;;;;;;;147.57;19.30;;;;;;;4.18;100.00;101445.72;5018808;28;20038;-68
2022/11/29 03:03:01;;;;;;;75.80;16.35;;;;;;;4.25;100.00;101452.16;5023706;28;22318;-69
2022/11/29 03:05:54;;;;;;;66.53;15.73;;;;;;;4.33;100.00;101458.66;5013773;28;20088;-68
2022/11/29 03:08:54;;;;;;;51.53;15.18;;;;;;;4.31;100.00;101455.06;5018462;28;20072;-68
2022/11/29 03:11:25;;;;;;;49.90;15.13;;;;;;;4.34;100.00;101447.44;5011484;28;20117;-68
2022/11/29 03:13:58;;;;;;;46.42;16.25;;;;;;;4.32;100.00;101449.03;5025336;28;20033;-68
2022/11/29 03:16:35;;;;;;;26.42;15.27;;;;;;;4.32;100.00;101453.38;5023964;28;20036;-68
2022/11/29 03:19:14;;;;;;;28.90;15.10;;;;;;;4.26;100.00;101458.25;5015609;28;20556;-68
2022/11/29 03:22:05;;;;;;;24.92;13.32;;;;;;;4.21;100.00;101466.72;5030076;28;20389;-68
2022/11/29 03:24:52;;;;;;;66.68;15.73;;;;;;;4.17;100.00;101464.75;5024482;28;20116;-68
2022/11/29 03:27:30;;;;;;;54.85;14.20;;;;;;;4.16;100.00;101469.91;5022329;28;20420;-69
2022/11/29 03:30:01;;;;;;;49.38;15.50;;;;;;;4.20;100.00;101472.72;5013602;28;20026;-71
2022/11/29 03:32:40;;;;;;;57.28;15.15;;;;;;;4.22;100.00;101470.25;5026424;28;20030;-69
2022/11/29 03:35:12;;;;;;;45.95;15.60;;;;;;;4.31;100.00;101478.50;5013852;28;20549;-68
2022/11/29 03:37:46;;;;;;;39.72;15.52;;;;;;;4.34;100.00;101477.78;5016778;28;20054;-69
2022/11/29 03:40:16;;;;;;;100.15;17.60;;;;;;;4.36;100.00;101479.66;5013478;28;20354;-68
2022/11/29 03:42:59;;;;;;;106.50;16.92;;;;;;;4.36;100.00;101482.25;5014421;28;20030;-68
2022/11/29 03:45:38;;;;;;;41.67;14.90;;;;;;;4.33;100.00;101476.91;5029004;28;20030;-69
2022/11/29 03:48:37;;;;;;;78.60;15.70;;;;;;;4.41;100.00;101486.81;5023340;28;20033;-68
2022/11/29 03:51:10;;;;;;;57.10;16.10;;;;;;;4.46;100.00;101493.16;5020208;28;20037;-68
2022/11/29 03:53:45;;;;;;;57.95;16.00;;;;;;;4.47;100.00;101495.84;5025330;28;20025;-68
2022/11/29 03:56:43;;;;;;;47.85;16.58;;;;;;;4.44;100.00;101500.03;5014153;28;20029;-68
2022/11/29 03:59:26;;;;;;;71.25;17.02;;;;;;;4.44;100.00;101500.03;5011834;28;20072;-69
2022/11/29 04:02:01;;;;;;;46.67;16.95;;;;;;;4.44;100.00;101500.91;5026943;28;20041;-68
2022/11/29 04:05:01;;;;;;;67.53;16.60;;;;;;;4.49;100.00;101503.72;5011902;28;20063;-68
2022/11/29 04:07:46;;;;;;;27.52;14.88;;;;;;;4.47;100.00;101505.38;5012987;28;20450;-68
2022/11/29 04:10:39;;;;;;;54.55;16.80;;;;;;;4.49;100.00;101511.56;5014559;28;20719;-68
2022/11/29 04:13:52;;;;;;;37.77;15.70;;;;;;;4.49;100.00;101514.16;5021736;28;20056;-68
2022/11/29 04:16:48;;;;;;;38.72;16.30;;;;;;;4.47;100.00;101511.47;5013129;28;20277;-67
2022/11/29 04:19:16;;;;;;;51.85;17.02;;;;;;;4.46;100.00;101516.63;5016398;28;20030;-68
2022/11/29 04:21:41;;;;;;;39.58;16.75;;;;;;;4.39;100.00;101513.72;5019548;28;20075;-69
2022/11/29 04:24:25;;;;;;;29.90;15.30;;;;;;;4.42;100.00;101509.44;5028252;28;20033;-69
2022/11/29 04:26:56;;;;;;;35.85;15.20;;;;;;;4.36;100.00;101513.53;5012472;28;20034;-71
2022/11/29 04:29:49;;;;;;;55.08;17.50;;;;;;;4.39;100.00;101512.78;5015846;28;20029;-68
2022/11/29 04:32:43;;;;;;;46.30;15.55;;;;;;;4.42;100.00;101523.38;5015575;28;20029;-69
2022/11/29 04:35:17;;;;;;;55.00;17.50;;;;;;;4.45;100.00;101522.63;5013809;28;20036;-68
2022/11/29 04:37:54;;;;;;;97.50;18.48;;;;;;;4.45;100.00;101527.84;5015738;28;20083;-69
2022/11/29 04:40:30;;;;;;;39.60;15.77;;;;;;;4.41;100.00;101521.59;5012050;28;20029;-68
2022/11/29 04:43:18;;;;;;;39.17;16.63;;;;;;;4.42;100.00;101523.38;5012213;28;20030;-68
2022/11/29 04:45:52;;;;;;;42.88;16.48;;;;;;;4.42;100.00;101522.47;5029908;28;20047;-69
2022/11/29 04:48:48;;;;;;;42.03;17.48;;;;;;;4.41;100.00;101521.59;5017889;28;20026;-68
2022/11/29 04:51:47;;;;;;;91.32;18.63;;;;;;;4.47;100.00;101523.63;5011554;28;20363;-69
2022/11/29 04:54:33;;;;;;;54.58;19.25;;;;;;;4.51;100.00;101528.19;5026031;28;20021;-69
2022/11/29 04:57:11;;;;;;;39.40;16.55;;;;;;;4.52;100.00;101529.97;5024404;28;20030;-68
2022/11/29 04:59:53;;;;;;;34.83;18.58;;;;;;;4.53;100.00;101537.88;5022092;28;20025;-69
2022/11/29 05:02:54;;;;;;;85.78;19.50;;;;;;;4.57;100.00;101541.50;5021735;28;20057;-68
2022/11/29 05:05:56;;;;;;;131.82;20.30;;;;;;;4.62;100.00;101546.97;5003089;28;20048;-68
2022/11/29 05:08:52;;;;;;;83.15;19.38;;;;;;;4.66;100.00;101547.22;5007968;28;20056;-69
2022/11/29 05:11:26;;;;;;;68.80;21.17;;;;;;;4.68;100.00;101557.72;5011567;28;20415;-69
2022/11/29 05:13:51;;;;;;;182.68;23.05;;;;;;;4.71;100.00;101548.34;5012006;28;20026;-68
2022/11/29 05:16:20;;;;;;;110.22;22.60;;;;;;;4.69;100.00;101544.78;5017237;28;20554;-70
2022/11/29 05:19:00;;;;;;;63.50;21.23;;;;;;;4.70;100.00;101549.16;5021422;28;20033;-68
2022/11/29 05:21:56;;;;;;;73.95;19.73;;;;;;;4.70;100.00;101551.75;5015794;28;20133;-69
2022/11/29 05:24:34;;;;;;;136.52;22.60;;;;;;;4.77;100.00;101554.72;5015729;28;20150;-68
2022/11/29 05:27:14;;;;;;;69.47;22.00;;;;;;;4.82;100.00;101553.25;5016082;28;20105;-68
2022/11/29 05:29:53;;;;;;;39.63;20.88;;;;;;;4.84;100.00;101556.81;5015312;28;20030;-69
2022/11/29 05:32:54;;;;;;;96.10;22.05;;;;;;;4.83;100.00;101558.53;5031121;28;20087;-68
2022/11/29 05:35:38;;;;;;;102.32;22.27;;;;;;;4.91;100.00;101566.75;5019816;28;20044;-68
2022/11/29 05:38:04;;;;;;;;;;;;;;;4.89;100.00;101560.53;5015695;28;20113;-68
2022/11/29 05:40:43;;;;;;;130.25;21.75;;;;;;;4.89;100.00;101569.25;5015898;28;19993;-69
2022/11/29 05:43:27;;;;;;;42.42;19.80;;;;;;;4.87;100.00;101564.78;5020417;28;20130;-69
2022/11/29 05:46:14;;;;;;;42.50;21.33;;;;;;;4.85;100.00;101576.84;5015662;28;20354;-69
2022/11/29 05:48:58;;;;;;;57.05;21.27;;;;;;;4.84;100.00;101581.19;5014993;28;20026;-69
2022/11/29 05:51:39;;;;;;;63.33;21.75;;;;;;;4.86;100.00;101591.69;5015292;28;20155;-68
2022/11/29 05:54:17;;;;;;;102.05;21.98;;;;;;;4.86;100.00;101594.31;5029981;28;20026;-69
2022/11/29 05:57:05;;;;;;;60.67;21.73;;;;;;;4.87;100.00;101596.97;5030561;28;20555;-69
2022/11/29 05:59:35;;;;;;;47.00;20.75;;;;;;;4.87;100.00;101601.28;5023602;28;20049;-69
2022/11/29 06:02:26;;;;;;;229.35;24.77;;;;;;;4.84;100.00;101607.25;5018511;28;20508;-70
2022/11/29 06:05:15;;;;;;;107.88;20.77;;;;;;;4.85;100.00;101618.56;5015023;28;20096;-69
2022/11/29 06:08:17;;;;;;;88.65;23.00;;;;;;;4.86;100.00;101620.38;5020438;28;20074;-68
2022/11/29 06:11:14;;;;;;;46.05;23.13;;;;;;;4.87;100.00;101624.75;5014427;28;20065;-69
2022/11/29 06:14:06;;;;;;;116.65;23.00;;;;;;;4.87;100.00;101622.13;5015994;28;20042;-69
2022/11/29 06:16:50;;;;;;;55.55;21.50;;;;;;;4.87;100.00;101616.94;5016360;28;20146;-69
2022/11/29 06:19:52;;;;;;;43.63;20.48;;;;;;;4.87;100.00;101623.06;5029687;28;20025;-68
2022/11/29 06:22:38;;;;;;;47.78;21.00;;;;;;;4.86;100.00;101636.91;5024100;28;20100;-69
2022/11/29 06:25:29;;;;;;;70.65;21.35;;;;;;;4.86;100.00;101638.63;5015258;28;20435;-67
2022/11/29 06:28:04;;;;;;;48.50;19.92;;;;;;;4.85;100.00;101639.44;5022644;28;20159;-67
2022/11/29 06:30:45;;;;;;;46.72;21.45;;;;;;;4.87;100.00;101643.91;5021772;28;20459;-69
2022/11/29 06:33:22;;;;;;;47.42;21.67;;;;;;;4.87;100.00;101643.00;5032659;28;20030;-69
2022/11/29 06:35:56;;;;;;;46.55;20.73;;;;;;;4.87;100.00;101643.00;5025141;28;20061;-68
2022/11/29 06:38:26;;;;;;;121.40;25.38;;;;;;;4.88;100.00;101652.63;5028221;28;20025;-68
2022/11/29 06:40:53;;;;;;;88.35;23.92;;;;;;;4.89;100.00;101655.31;5026366;28;20423;-68
2022/11/29 06:43:19;;;;;;;51.55;22.83;;;;;;;4.92;100.00;101654.56;5036931;28;20053;-68
2022/11/29 06:45:49;;;;;;;228.23;27.45;;;;;;;4.92;100.00;101651.97;5038513;28;20109;-68
2022/11/29 06:48:24;;;;;;;79.60;23.17;;;;;;;4.95;100.00;101659.97;5037930;28;20037;-69
2022/11/29 06:50:57;;;;;;;155.98;24.73;;;;;;;4.97;100.00;101660.94;5046296;28;20036;-69
2022/11/29 06:53:34;;;;;;;41.03;21.63;;;;;;;4.98;100.00;101661.81;5046425;28;20075;-68
2022/11/29 06:56:21;;;;;;;158.27;24.20;;;;;;;4.98;100.00;101667.97;5036585;28;20033;-70
2022/11/29 06:59:06;;;;;;;54.92;22.23;;;;;;;4.97;100.00;101676.59;5030369;28;20025;-68
2022/11/29 07:01:52;;;;;;;42.05;21.58;;;;;;;5.02;100.00;101684.69;5033973;28;20493;-69
2022/11/29 07:04:31;;;;;;;58.53;23.75;;;;;;;5.01;100.00;101683.75;5024083;28;20393;-67
2022/11/29 07:06:59;;;;;;;96.28;25.05;;;;;;;5.04;100.00;101681.31;5029384;28;20034;-66
2022/11/29 07:09:31;;;;;;;127.68;23.45;;;;;;;5.06;100.00;101687.50;5033731;28;20379;-68
2022/11/29 07:12:00;;;;;;;53.10;22.17;;;;;;;5.07;100.00;101680.56;5031926;28;20108;-69
2022/11/29 07:14:26;;;;;;;66.25;22.95;;;;;;;5.09;100.00;101686.78;5030822;28;20031;-69
2022/11/29 07:17:15;;;;;;;49.80;21.13;;;;;;;5.11;100.00;101694.69;5033580;28;20382;-68
2022/11/29 07:19:49;;;;;;;169.32;23.95;;;;;;;5.12;100.00;101696.47;5033097;28;20124;-69
2022/11/29 07:22:56;;;;;;;41.60;20.42;;;;;;;5.08;100.00;101695.41;5033046;28;20032;-67
2022/11/29 07:26:00;;;;;;;84.97;21.83;;;;;;;5.06;100.00;101708.38;5032208;28;20037;-67
2022/11/29 07:28:38;;;;;;;52.10;20.30;;;;;;;5.08;100.00;101711.06;5018791;28;20132;-69
2022/11/29 07:31:10;;;;;;;101.95;20.65;;;;;;;5.04;100.00;101720.44;5012868;28;20026;-69
2022/11/29 07:33:54;;;;;;;106.25;22.13;;;;;;;5.03;100.00;101710.84;5013081;28;20030;-68
2022/11/29 07:36:29;;;;;;;50.65;20.88;;;;;;;5.07;100.00;101730.13;5013186;28;20029;-69
2022/11/29 07:39:10;;;;;;;100.95;22.55;;;;;;;5.05;100.00;101724.84;5012419;28;20083;-69
2022/11/29 07:41:54;;;;;;;134.73;22.98;;;;;;;5.05;100.00;101734.41;5013133;28;20470;-69
2022/11/29 07:44:45;;;;;;;47.72;20.58;;;;;;;5.03;100.00;101734.31;5013813;28;20030;-70
2022/11/29 07:47:11;;;;;;;60.70;20.25;;;;;;;5.02;100.00;101732.50;5012597;28;20033;-68
2022/11/29 07:49:37;;;;;;;50.03;20.75;;;;;;;4.98;100.00;101738.38;5013371;28;20029;-69
2022/11/29 07:52:02;;;;;;;45.60;18.88;;;;;;;4.94;100.00;101738.13;5013516;28;20033;-69
2022/11/29 07:54:28;;;;;;;84.45;20.83;;;;;;;4.95;100.00;101739.91;5012708;28;20026;-68
2022/11/29 07:56:57;;;;;;;103.22;22.00;;;;;;;4.96;100.00;101742.59;5013567;28;20105;-70
2022/11/29 07:59:22;;;;;;;182.48;22.30;;;;;;;4.98;100.00;101745.28;5025970;28;20021;-69
2022/11/29 08:01:47;;;;;;;76.22;20.33;;;;;;;4.98;100.00;101746.22;5030200;28;20140;-68
2022/11/29 08:04:16;;;;;;;68.10;20.35;;;;;;;5.00;100.00;101744.56;5031643;28;20033;-68
2022/11/29 08:06:41;;;;;;;76.28;21.38;;;;;;;5.03;100.00;101749.97;5031889;28;20425;-70
2022/11/29 08:09:06;;;;;;;46.97;19.40;;;;;;;5.04;100.00;101751.72;5032705;28;20031;-70
2022/11/29 08:11:32;;;;;;;75.35;22.77;;;;;;;5.06;100.00;101750.13;5026408;28;20049;-68
2022/11/29 08:13:59;;;;;;;64.43;21.80;;;;;;;5.07;100.00;101753.63;5011798;28;20117;-69
2022/11/29 08:16:24;;;;;;;45.28;20.27;;;;;;;5.13;100.00;101755.66;5010833;28;20029;-67
2022/11/29 08:18:49;;;;;;;137.55;23.70;;;;;;;5.15;100.00;101764.47;5011978;28;20018;-68
2022/11/29 08:21:16;;;;;;;166.32;24.25;;;;;;;5.16;100.00;101766.28;5011950;28;20204;-68
2022/11/29 08:23:46;;;;;;;56.00;21.13;;;;;;;5.17;100.00;101762.84;5014199;28;20030;-69
2022/11/29 08:26:12;;;;;;;142.25;24.30;;;;;;;5.19;100.00;101769.03;5012516;28;20025;-68
2022/11/29 08:28:38;;;;;;;51.25;22.63;;;;;;;5.22;100.00;101777.03;5011090;28;20021;-68
2022/11/29 08:31:07;;;;;;;150.70;23.23;;;;;;;5.23;100.00;101782.31;5012898;28;20026;-70
2022/11/29 08:33:37;;;;;;;48.08;20.23;;;;;;;5.27;100.00;101775.56;5012612;28;20017;-69
2022/11/29 08:36:08;;;;;;;102.70;22.77;;;;;;;5.31;100.00;101777.50;5012408;28;20799;-68
2022/11/29 08:38:33;;;;;;;132.07;22.70;;;;;;;5.31;100.00;101772.28;5012655;28;20029;-68
2022/11/29 08:41:03;;;;;;;93.55;21.60;;;;;;;5.34;100.00;101780.28;5012747;28;20164;-70
2022/11/29 08:43:29;;;;;;;153.55;23.90;;;;;;;5.37;100.00;101782.16;5013036;28;20390;-69
2022/11/29 08:45:55;;;;;;;58.28;19.55;;;;;;;5.36;100.00;101778.66;5012804;28;20474;-68
2022/11/29 08:48:20;;;;;;;47.40;20.35;;;;;;;5.39;100.00;101781.41;5013046;28;20029;-70
2022/11/29 08:50:48;;;;;;;47.35;20.83;;;;;;;5.40;100.00;101785.84;5012117;28;20472;-70
2022/11/29 08:55:58;;;;;;;153.02;21.70;;;;;;;5.45;100.00;101790.41;5024826;28;20588;-69
2022/11/29 08:58:24;;;;;;;120.75;19.33;;;;;;;5.43;100.00;101789.44;5043809;28;20028;-69
2022/11/29 09:00:50;;;;;;;172.05;20.35;;;;;;;5.43;100.00;101786.81;5041886;28;20102;-70
2022/11/29 09:06:08;;;;;;;263.77;21.30;;;;;;;5.51;100.00;101801.19;5043722;28;20044;-69
2022/11/29 09:08:34;;;;;;;155.55;19.55;;;;;;;5.54;100.00;101798.72;5040859;28;20040;-69
2022/11/29 09:10:59;;;;;;;226.15;19.80;;;;;;;5.54;100.00;101801.31;5043425;28;20060;-70
2022/11/29 09:13:25;;;;;;;43.72;15.98;;;;;;;5.52;100.00;101798.66;5032489;28;20483;-70
2022/11/29 09:15:50;;;;;;;80.53;17.92;;;;;;;5.55;100.00;101808.34;5019283;28;20037;-70
2022/11/29 09:18:16;;;;;;;87.70;17.52;;;;;;;5.55;100.00;101813.56;5014460;28;20029;-69
2022/11/29 09:20:43;;;;;;;120.80;20.23;;;;;;;5.51;100.00;101816.84;5029487;28;20500;-69
2022/11/29 09:23:09;;;;;;;42.72;17.50;;;;;;;5.53;100.00;101816.06;5032099;28;20034;-68
2022/11/29 09:25:34;;;;;;;122.28;19.42;;;;;;;5.55;100.00;101821.41;5030710;28;20033;-68
2022/11/29 09:28:01;;;;;;;147.25;22.40;;;;;;;5.58;100.00;101826.78;5030144;28;20025;-69
2022/11/29 09:30:30;;;;;;;108.35;22.20;;;;;;;5.61;100.00;101829.53;5029775;28;20017;-68
2022/11/29 09:32:56;;;;;;;55.90;20.88;;;;;;;5.67;100.00;101823.75;5028954;28;20040;-68
2022/11/29 09:35:21;;;;;;;71.88;18.67;;;;;;;5.71;100.00;101829.22;5026825;28;20022;-69
2022/11/29 09:37:47;;;;;;;70.20;20.30;;;;;;;5.73;100.00;101829.31;5014460;28;20052;-70
2022/11/29 09:40:29;;;;;;;50.58;17.65;;;;;;;5.75;100.00;101838.09;5018621;28;20029;-68
2022/11/29 09:43:01;;;;;;;50.10;18.45;;;;;;;5.80;100.00;101840.97;5038670;28;20052;-69
2022/11/29 09:45:35;;;;;;;49.65;18.67;;;;;;;5.80;100.00;101841.84;5041697;28;20029;-69
2022/11/29 09:48:06;;;;;;;114.07;21.77;;;;;;;5.86;100.00;101851.72;5043711;28;20037;-68
2022/11/29 09:50:34;;;;;;;63.53;17.92;;;;;;;5.90;100.00;101853.66;5043174;28;20151;-69
2022/11/29 09:53:18;;;;;;;113.78;20.73;;;;;;;5.93;100.00;101856.47;5042819;28;20062;-68
2022/11/29 09:55:46;;;;;;;44.65;19.30;;;;;;;5.94;100.00;101855.66;5038144;28;20366;-69
2022/11/29 09:58:16;;;;;;;47.95;18.67;;;;;;;5.98;100.00;101855.03;5037157;28;20035;-69
2022/11/29 10:00:48;;;;;;;50.28;17.90;;;;;;;6.04;100.00;101857.94;5038572;28;20041;-69
2022/11/29 10:03:27;;;;;;;78.70;19.33;;;;;;;6.13;100.00;101854.00;5043677;28;20040;-71
2022/11/29 10:05:57;;;;;;;42.55;17.33;;;;;;;6.11;100.00;101853.91;5046755;28;20473;-70
2022/11/29 10:08:26;;;;;;;75.00;19.17;;;;;;;6.20;100.00;101853.47;5048291;28;20481;-69
2022/11/29 10:10:58;;;;;;;47.08;17.65;;;;;;;6.30;100.00;101850.53;5013967;28;20030;-70
2022/11/29 10:13:28;;;;;;;64.07;18.58;;;;;;;6.41;100.00;101857.16;5014504;28;20391;-70
2022/11/29 10:16:00;;;;;;;86.85;19.23;;;;;;;6.53;100.00;101848.16;5016685;28;20018;-69
2022/11/29 10:18:34;;;;;;;70.32;19.23;;;;;;;6.57;100.00;101853.59;5014795;28;20382;-69
2022/11/29 10:21:08;;;;;;;91.38;20.05;;;;;;;6.64;100.00;101853.91;5014626;28;20386;-68
2022/11/29 10:23:46;;;;;;;;;;;;;;;6.71;100.00;101856.00;5015556;28;20032;-66
2022/11/29 10:26:12;;;;;;;45.75;17.88;;;;;;;6.83;100.00;101847.84;5031850;28;19935;-68
2022/11/29 10:28:43;;;;;;;49.25;19.23;;;;;;;6.93;100.00;101850.06;5034103;28;20029;-69
2022/11/29 10:31:20;;;;;;;46.95;19.88;;;;;;;7.04;100.00;101853.19;5029258;28;20032;-69
2022/11/29 10:33:46;;;;;;;58.50;20.98;;;;;;;7.13;100.00;101861.50;5023807;28;20036;-68
2022/11/29 10:36:31;;;;;;;63.38;20.88;;;;;;;7.19;100.00;101858.25;5030275;28;20029;-68
2022/11/29 10:39:01;;;;;;;64.53;20.38;;;;;;;7.26;100.00;101860.34;5019636;28;20026;-67
2022/11/29 10:41:27;;;;;;;67.47;21.73;;;;;;;7.37;100.00;101859.13;5033734;28;20523;-68
2022/11/29 10:43:56;;;;;;;87.88;19.73;;;;;;;7.29;100.00;101859.59;5034692;28;20108;-70
2022/11/29 10:46:35;;;;;;;40.85;19.83;;;;;;;7.27;100.00;101859.53;5031234;28;20091;-68
2022/11/29 10:49:04;;;;;;;50.35;20.20;;;;;;;7.30;100.00;101862.28;5039763;28;20523;-69
2022/11/29 10:51:30;;;;;;;47.22;21.20;;;;;;;7.26;100.00;101853.38;5046031;28;20026;-68
2022/11/29 10:54:11;;;;;;;46.83;19.80;;;;;;;7.20;100.00;101860.06;5040810;28;20028;-69
2022/11/29 10:56:39;;;;;;;45.70;19.65;;;;;;;7.19;100.00;101866.09;5044637;28;20029;-68
2022/11/29 10:59:08;;;;;;;52.15;19.90;;;;;;;7.19;100.00;101864.41;5045244;28;20483;-67
2022/11/29 11:01:39;;;;;;;45.45;19.88;;;;;;;7.19;100.00;101863.50;5037042;28;20581;-68
2022/11/29 11:04:08;;;;;;;52.22;20.23;;;;;;;7.19;100.00;101860.88;5026277;28;20033;-69
2022/11/29 11:06:54;;;;;;;56.78;22.52;;;;;;;7.19;100.00;101869.66;5014220;28;20036;-68
2022/11/29 11:09:34;;;;;;;76.38;24.15;;;;;;;7.18;100.00;101866.97;5017992;28;20480;-69
2022/11/29 11:12:17;;;;;;;71.35;23.48;;;;;;;7.18;100.00;101862.59;5035498;28;20032;-69
2022/11/29 11:14:43;;;;;;;62.83;24.75;;;;;;;7.30;100.00;101867.53;5046504;28;20056;-69
2022/11/29 11:17:21;;;;;;;94.22;26.35;;;;;;;7.46;100.00;101858.66;5038037;28;20441;-69
2022/11/29 11:19:56;;;;;;;60.42;22.48;;;;;;;7.69;100.00;101864.94;5045914;28;20072;-69
2022/11/29 11:22:23;;;;;;;126.63;24.25;;;;;;;7.82;100.00;101870.72;5044521;28;20033;-71
2022/11/29 11:24:57;;;;;;;56.75;24.05;;;;;;;7.82;100.00;101873.34;5045784;28;20111;-68
2022/11/29 11:27:33;;;;;;;;;;;;;;;7.79;100.00;101865.34;5036572;28;20100;-69
2022/11/29 11:29:59;;;;;;;61.38;22.40;;;;;;;7.82;100.00;101863.75;5013955;28;20443;-69
2022/11/29 11:32:25;;;;;;;62.03;21.70;;;;;;;7.84;100.00;101864.72;5013708;28;20033;-69
2022/11/29 11:34:52;;;;;;;62.42;24.30;;;;;;;7.79;100.00;101868.84;5014942;28;20129;-69
2022/11/29 11:37:21;;;;;;;87.63;24.05;;;;;;;7.85;100.00;101870.84;5025597;28;20017;-69
2022/11/29 11:39:49;;;;;;;67.88;24.45;;;;;;;7.88;100.00;101873.59;5031725;28;20035;-69
2022/11/29 11:42:37;;;;;;;59.72;23.67;;;;;;;7.94;100.00;101880.00;5032123;28;20018;-69
2022/11/29 11:45:11;;;;;;;58.80;23.15;;;;;;;8.07;100.00;101886.69;5027304;28;20044;-69
2022/11/29 11:47:41;;;;;;;72.78;23.40;;;;;;;8.12;100.00;101875.50;5021666;28;20025;-68
2022/11/29 11:50:12;;;;;;;60.75;22.92;;;;;;;8.09;100.00;101869.28;5013634;28;20069;-68